• Join FlightAware (Why Join?)
  • Login
  • US Flag 
09:36PM EDT


 

Airport Tracker/Info


-or-


 

Live Flight TrackerFlight Track Log ✈ SWA1887 ✈ 21-Apr-2013 ✈ KDAL - KTUL

Flight Track Log - Related Links

Times and Time Zones

All times are in EDT time to prevent confusion due to time zone crossing. See the SWA1887 flight status page for this flight to view local times or setup timezone preferences in your user account.

Time Position Orientation Groundspeed Altitude Reporting Facility
EDT Latitude Longitude Course Direction KTS MPH feet Rate Location/Type
02:56PM 32.7833 -96.7667 140° Southeast 214 246 4,400  Level Dallas / Fort Worth TRACON
02:57PM 32.7500 -96.7167 128° Southeast 243 280 7,500 2,760 Climbing Dallas / Fort Worth TRACON
02:58PM 32.8167 -96.6833 23° Northeast 287 330 9,700 2,640 Climbing Dallas / Fort Worth TRACON
03:01PM 33.0175 -96.7619 342° North 373 429 16,100 3,060 Climbing Fort Worth Center
03:02PM 33.1264 -96.8106 340° North 373 429 19,600 3,120 Climbing Fort Worth Center
03:03PM 33.2247 -96.8572 338° Northwest 378 435 22,400 2,580 Climbing Fort Worth Center
03:04PM 33.3311 -96.9039 340° North 386 444 24,800 2,280 Climbing Fort Worth Center
03:05PM 33.4378 -96.9531 339° North 397 457 27,000 2,520 Climbing Fort Worth Center
03:06PM 33.5547 -96.9275 10° North 397 457 29,900 2,520 Climbing Fort Worth Center
03:07PM 33.6692 -96.8794 19° North 413 475 32,100 1,500 Climbing Fort Worth Center
03:08PM 33.7858 -96.8311 19° North 424 488 33,000 420 Climbing Fort Worth Center
03:09PM 33.8983 -96.7878 18° North 424 488 33,000  Level Fort Worth Center
03:10PM 34.0131 -96.7419 18° North 429 494 33,000  Level Fort Worth Center
03:11PM 34.1086 -96.7011 19° North 421 484 33,000  Level Fort Worth Center
03:12PM 34.2253 -96.6575 17° North 421 484 33,000  Level Fort Worth Center
03:13PM 34.3378 -96.6111 19° North 421 484 33,000  Level Fort Worth Center
03:14PM 34.4500 -96.5622 20° North 426 490 33,000  Level Fort Worth Center
03:15PM 34.5667 -96.5133 19° North 426 490 33,000 -60 Level Fort Worth Center
03:16PM 34.6808 -96.4642 19° North 426 490 32,900 -600 Descending Fort Worth Center
03:17PM 34.7975 -96.4122 20° North 431 496 31,900 -960 Descending Fort Worth Center
03:18PM 34.9139 -96.3603 20° North 431 496 31,000 -960 Descending Fort Worth Center
03:19PM 35.0322 -96.3081 20° North 443 510 30,000 -1,380 Descending Fort Worth Center
03:20PM 35.1464 -96.2583 20° North 443 510 28,300 -2,160 Descending Fort Worth Center
03:21PM 35.2628 -96.2083 19° North 443 510 25,700 -2,760 Descending Fort Worth Center
03:23PM 35.5264 -96.0881 20° North 425 489 19,200 -2,820 Descending Kansas City Center
03:24PM 35.6425 -96.0533 14° North 413 475 16,300 -2,940 Descending Kansas City Center
03:25PM 35.7239 -96.0428 North 396 456 14,100 -3,120 Descending Kansas City Center
03:25PM 35.7514 -96.0344 14° North 399 459 13,200 -3,000 Descending Kansas City Center
03:26PM 35.8294 -96.0267 North 387 445 11,100 -2,580 Descending Kansas City Center
03:26PM 35.8586 -96.0283 357° North 387 445 10,500 -1,140 Descending Kansas City Center
03:27PM 35.9308 -96.0344 356° North 350 403 10,000 -600 Descending Kansas City Center
03:27PM 35.9553 -96.0364 356° North 358 412 9,900 -1,440 Descending Kansas City Center
03:28PM 36.0183 -96.0542 347° North 279 321 8,400 -1,980 Descending Kansas City Center
03:28PM 36.0333 -96.0583 347° North 300 345 7,900 -1,980 Descending Kansas City Center
03:29PM 36.0967 -96.0622 357° North 286 329 6,400 -1,800 Descending Kansas City Center
03:29PM 36.1131 -96.0544 21° North 293 337 6,000 -2,400 Descending Kansas City Center
03:30PM 36.1672 -96.0275 22° Northeast 264 304 4,000 -2,220 Descending Kansas City Center
03:30PM 36.1825 -96.0203 21° North 273 314 3,800 -420 Descending Kansas City Center
03:31PM 36.2014 -95.9842 57° Northeast 150 173 3,600 -540 Descending Kansas City Center
03:31PM 36.1975 -95.9789 132° Southeast 190 219 3,300 -1,800 Descending Kansas City Center
03:32PM 36.1978 -95.9433 89° East 129 148 1,800 -1,920 Descending Kansas City Center
03:32PM 36.1967 -95.9261 95° East 154 177 1,300 -840 Descending Kansas City Center
03:33PM 36.1956 -95.8869 92° East 145 167 700 -600 Descending Kansas City Center
03:35PM 36.1984 -95.8881 North  Level Estimated
03:42PM 36.1984 -95.8881 North  Level Estimated